Time;durP1;ratioP1;P1;durP2;ratioP2;P2;SDS_P1;SDS_P2;PMS_P1;PMS_P2;Temp;Humidity;BMP_temperature;BMP_pressure;BME280_temperature;BME280_humidity;BME280_pressure;Samples;Min_cycle;Max_cycle;Signal;HPM_P1;HPM_P2
2022/08/27 00:01:41;;;;;;;1.67;1.30;;;25.50;90.90;;;;;;5050882;28;20343;-91
2022/08/27 00:04:25;;;;;;;1.80;1.60;;;25.50;90.60;;;;;;5034292;28;20175;-91
2022/08/27 00:07:35;;;;;;;1.70;1.40;;;25.50;90.80;;;;;;5081255;28;20462;-90
2022/08/27 00:10:01;;;;;;;1.97;1.60;;;25.50;90.70;;;;;;5051703;28;20445;-91
2022/08/27 00:12:27;;;;;;;1.33;1.23;;;25.50;90.90;;;;;;5084690;28;20168;-92
2022/08/27 00:15:46;;;;;;;2.40;1.37;;;25.50;90.80;;;;;;5071346;28;20588;-92
2022/08/27 00:18:13;;;;;;;2.03;1.20;;;25.40;90.60;;;;;;5005201;28;20184;-92
2022/08/27 00:20:54;;;;;;;2.30;1.43;;;25.40;90.70;;;;;;4966905;28;20174;-92
2022/08/27 00:23:20;;;;;;;2.27;1.67;;;25.40;90.80;;;;;;5015366;28;20187;-93
2022/08/27 00:25:46;;;;;;;2.00;1.40;;;25.40;90.80;;;;;;5080254;28;20175;-93
2022/08/27 00:28:41;;;;;;;1.97;1.33;;;25.40;90.80;;;;;;5076979;28;20228;-93
2022/08/27 00:31:31;;;;;;;1.83;1.33;;;25.40;90.70;;;;;;5054096;28;20163;-93
2022/08/27 00:33:57;;;;;;;2.00;1.40;;;25.40;90.90;;;;;;5086430;28;20207;-92
2022/08/27 00:36:24;;;;;;;1.93;1.73;;;25.40;90.90;;;;;;5059617;28;20175;-92
2022/08/27 00:39:28;;;;;;;3.07;1.87;;;25.40;91.20;;;;;;5062022;28;20309;-92
2022/08/27 00:46:03;;;;;;;1.90;1.60;;;25.40;90.90;;;;;;5066430;28;20240;-92
2022/08/27 00:48:32;;;;;;;2.30;1.80;;;25.40;91.00;;;;;;5070965;28;20428;-92
2022/08/27 00:51:34;;;;;;;1.60;1.40;;;25.30;91.10;;;;;;5045302;28;20248;-91
2022/08/27 00:54:01;;;;;;;2.30;1.43;;;25.30;91.20;;;;;;5042590;28;20577;-91
2022/08/27 00:59:54;;;;;;;2.07;1.37;;;25.30;91.20;;;;;;5069025;28;20249;-91
2022/08/27 01:02:20;;;;;;;2.30;1.40;;;25.20;91.40;;;;;;5076064;28;20175;-91
2022/08/27 01:05:05;;;;;;;1.83;1.73;;;25.20;91.20;;;;;;5075620;28;20430;-91
2022/08/27 01:08:04;;;;;;;3.33;1.47;;;25.20;91.30;;;;;;5071207;28;20276;-91
2022/08/27 01:14:46;;;;;;;1.87;1.30;;;25.20;91.20;;;;;;5028728;28;20246;-91
2022/08/27 01:17:52;;;;;;;2.23;1.80;;;25.20;91.20;;;;;;5024611;28;20275;-92
2022/08/27 01:21:20;;;;;;;2.00;1.50;;;25.20;91.30;;;;;;5023861;28;20176;-91
2022/08/27 01:24:31;;;;;;;2.60;1.67;;;25.20;91.20;;;;;;4989229;28;20344;-92
2022/08/27 01:26:58;;;;;;;2.50;1.63;;;25.20;91.20;;;;;;4997081;28;20208;-92
2022/08/27 01:30:01;;;;;;;2.60;1.80;;;25.20;91.30;;;;;;5010840;28;20636;-92
2022/08/27 01:32:35;;;;;;;2.30;1.30;;;25.20;91.30;;;;;;5026563;28;20172;-92
2022/08/27 01:35:06;;;;;;;1.73;1.53;;;25.20;91.30;;;;;;5006954;28;20231;-93
2022/08/27 01:37:33;;;;;;;1.80;1.53;;;25.20;91.10;;;;;;5005310;28;20165;-92
2022/08/27 01:40:04;;;;;;;2.60;1.80;;;25.20;91.20;;;;;;5017382;28;20184;-92
2022/08/27 01:43:09;;;;;;;1.53;1.40;;;25.20;91.50;;;;;;5002098;28;20551;-92
2022/08/27 01:45:38;;;;;;;3.47;1.83;;;25.10;91.30;;;;;;5067843;28;20425;-92
2022/08/27 01:48:06;;;;;;;2.37;1.50;;;25.10;91.40;;;;;;5089262;28;20168;-93
2022/08/27 01:50:51;;;;;;;3.10;1.60;;;25.10;91.30;;;;;;5052995;28;20404;-93
2022/08/27 01:53:21;;;;;;;2.93;2.27;;;25.10;91.40;;;;;;5079725;28;20254;-92
2022/08/27 01:59:27;;;;;;;3.10;2.00;;;25.10;91.60;;;;;;5072416;28;20175;-92
2022/08/27 02:02:15;;;;;;;1.77;1.50;;;25.10;91.50;;;;;;5083925;28;20171;-92
2022/08/27 02:04:51;;;;;;;2.60;1.57;;;25.10;91.50;;;;;;5035217;28;20187;-92
2022/08/27 02:07:17;;;;;;;2.23;1.50;;;25.10;91.60;;;;;;5044463;28;20218;-91
2022/08/27 02:09:43;;;;;;;1.97;1.77;;;25.00;91.50;;;;;;5072440;28;20210;-91
2022/08/27 02:12:09;;;;;;;2.53;1.47;;;25.00;91.50;;;;;;5050040;28;20284;-91
2022/08/27 02:14:35;;;;;;;2.83;1.60;;;25.00;91.50;;;;;;5072351;28;20222;-92
2022/08/27 02:17:01;;;;;;;2.10;1.50;;;25.00;91.40;;;;;;5076054;28;20171;-91
2022/08/27 02:19:27;;;;;;;1.73;1.40;;;25.00;91.50;;;;;;5080761;28;20595;-92
2022/08/27 02:21:59;;;;;;;3.27;1.60;;;25.00;91.50;;;;;;5075592;28;20537;-92
2022/08/27 02:24:57;;;;;;;2.23;1.70;;;25.00;91.50;;;;;;5057071;28;20573;-92
2022/08/27 02:28:19;;;;;;;1.67;1.53;;;25.00;91.60;;;;;;5079930;28;20199;-92
2022/08/27 02:30:59;;;;;;;2.53;1.60;;;25.00;91.60;;;;;;4993884;28;20190;-92
2022/08/27 02:33:25;;;;;;;2.30;1.60;;;25.00;91.50;;;;;;5048791;28;20175;-92
2022/08/27 02:35:58;;;;;;;2.90;1.50;;;25.00;91.60;;;;;;5076899;28;20237;-92
2022/08/27 02:38:36;;;;;;;2.70;1.60;;;25.00;91.50;;;;;;5051061;28;20174;-92
2022/08/27 02:41:02;;;;;;;2.00;1.80;;;24.90;91.70;;;;;;5037825;28;20690;-92
2022/08/27 02:43:32;;;;;;;1.63;1.30;;;24.90;91.60;;;;;;5035472;28;20179;-92
2022/08/27 02:46:00;;;;;;;1.50;1.40;;;24.90;91.60;;;;;;5070174;28;20168;-92
2022/08/27 02:48:27;;;;;;;3.47;1.87;;;24.90;91.60;;;;;;5045180;28;20180;-92
2022/08/27 02:50:53;;;;;;;2.13;1.50;;;24.90;91.60;;;;;;5078022;28;20171;-92
2022/08/27 02:53:19;;;;;;;2.20;1.60;;;24.90;91.60;;;;;;5079868;28;20174;-92
2022/08/27 02:55:51;;;;;;;2.67;1.70;;;24.90;91.60;;;;;;5071487;28;20263;-92
2022/08/27 02:58:19;;;;;;;2.73;1.60;;;24.90;91.60;;;;;;5068461;28;20246;-92
2022/08/27 03:00:57;;;;;;;3.57;1.90;;;24.90;91.60;;;;;;5051690;28;20177;-92
2022/08/27 03:03:30;;;;;;;2.47;1.80;;;24.90;91.60;;;;;;5062080;28;20215;-91
2022/08/27 03:05:57;;;;;;;2.17;1.60;;;24.90;91.60;;;;;;5057067;28;20199;-91
2022/08/27 03:08:27;;;;;;;2.07;1.40;;;24.80;91.60;;;;;;5037842;28;20553;-91
2022/08/27 03:10:56;;;;;;;1.73;1.30;;;24.90;91.60;;;;;;5065537;28;20630;-91
2022/08/27 03:13:41;;;;;;;2.23;1.47;;;24.80;91.60;;;;;;5063290;28;20489;-91
2022/08/27 03:16:10;;;;;;;2.30;1.53;;;24.80;91.60;;;;;;5066903;28;20187;-91
2022/08/27 03:22:03;;;;;;;2.03;1.40;;;24.80;91.50;;;;;;5066600;28;20583;-91
2022/08/27 03:24:29;;;;;;;2.27;1.40;;;24.80;91.60;;;;;;5082922;28;20478;-91
2022/08/27 03:27:14;;;;;;;1.83;1.57;;;24.80;91.60;;;;;;5082445;28;20194;-91
2022/08/27 03:30:33;;;;;;;2.20;1.50;;;24.80;91.60;;;;;;5068192;28;20222;-91
2022/08/27 03:32:59;;;;;;;2.83;1.50;;;24.80;91.50;;;;;;5076880;28;20327;-91
2022/08/27 03:35:31;;;;;;;2.57;1.77;;;24.80;91.60;;;;;;5066342;28;20241;-91
2022/08/27 03:37:57;;;;;;;2.57;1.57;;;24.80;91.50;;;;;;5068366;28;20194;-91
2022/08/27 03:41:25;;;;;;;3.00;1.63;;;24.80;91.50;;;;;;5080546;28;20430;-92
2022/08/27 03:47:13;;;;;;;3.57;1.70;;;24.80;91.50;;;;;;5068265;28;20264;-92
2022/08/27 03:49:40;;;;;;;2.37;1.50;;;24.80;91.60;;;;;;5073777;28;20568;-92
2022/08/27 03:52:06;;;;;;;3.70;1.63;;;24.70;91.60;;;;;;5081951;28;20282;-92
2022/08/27 03:54:37;;;;;;;3.40;1.50;;;24.70;91.60;;;;;;5029496;28;20298;-91
2022/08/27 03:57:30;;;;;;;2.23;1.40;;;24.70;91.60;;;;;;5053565;28;20168;-92
2022/08/27 03:59:58;;;;;;;2.23;1.40;;;24.70;91.60;;;;;;5084224;28;20175;-92
2022/08/27 04:02:26;;;;;;;3.63;1.50;;;24.70;91.60;;;;;;5049434;28;20802;-92
2022/08/27 04:04:51;;;;;;;5.27;1.60;;;24.70;91.60;;;;;;5051366;28;20240;-92
2022/08/27 04:07:40;;;;;;;2.50;1.50;;;24.70;91.60;;;;;;5083631;28;20171;-91
2022/08/27 04:10:08;;;;;;;3.87;1.47;;;24.70;91.60;;;;;;5079536;28;20193;-92
2022/08/27 04:12:34;;;;;;;2.63;1.70;;;24.70;91.90;;;;;;5072977;28;20286;-92
2022/08/27 04:15:00;;;;;;;3.07;1.40;;;24.60;91.60;;;;;;5041899;28;20207;-93
2022/08/27 04:17:44;;;;;;;2.57;1.50;;;24.60;91.60;;;;;;5048914;28;20172;-92
2022/08/27 04:20:11;;;;;;;3.63;1.40;;;24.60;91.60;;;;;;5083559;28;20176;-90
2022/08/27 04:22:38;;;;;;;2.57;1.50;;;24.60;91.70;;;;;;5083648;28;20179;-92
2022/08/27 04:25:13;;;;;;;3.10;1.40;;;24.60;91.70;;;;;;5071715;28;20558;-92
2022/08/27 04:27:38;;;;;;;1.77;1.47;;;24.60;91.60;;;;;;5041994;28;20542;-92
2022/08/27 04:30:05;;;;;;;3.17;1.60;;;24.60;91.60;;;;;;5065977;28;20404;-92
2022/08/27 04:32:32;;;;;;;3.47;2.00;;;24.60;91.70;;;;;;5076613;28;20192;-92
2022/08/27 04:35:00;;;;;;;2.30;1.40;;;24.60;91.60;;;;;;5074167;28;20230;-92
2022/08/27 04:37:36;;;;;;;2.40;1.30;;;24.60;91.60;;;;;;5078785;28;20451;-92
2022/08/27 04:40:21;;;;;;;3.57;1.50;;;24.60;91.60;;;;;;5046096;28;20191;-92
2022/08/27 04:42:47;;;;;;;2.07;1.63;;;24.60;91.60;;;;;;5082587;28;20178;-92
2022/08/27 04:45:13;;;;;;;4.57;1.70;;;24.60;91.60;;;;;;5086684;28;20175;-92
2022/08/27 04:47:39;;;;;;;2.90;1.40;;;24.60;91.60;;;;;;5082924;28;20439;-92
2022/08/27 04:50:45;;;;;;;2.30;1.50;;;24.60;91.60;;;;;;5085042;28;20222;-92
2022/08/27 05:00:00;;;;;;;2.87;1.50;;;24.50;91.70;;;;;;5006485;28;20249;-92
2022/08/27 05:02:25;;;;;;;3.40;1.60;;;24.50;91.60;;;;;;5046981;28;20179;-93
2022/08/27 05:05:32;;;;;;;2.60;1.63;;;24.50;91.70;;;;;;5076684;28;20167;-92
2022/08/27 05:07:58;;;;;;;2.43;1.50;;;24.50;91.70;;;;;;5042672;28;20167;-92
2022/08/27 05:10:24;;;;;;;1.70;1.50;;;24.50;91.60;;;;;;5083495;28;20203;-92
2022/08/27 05:12:50;;;;;;;2.67;1.70;;;24.50;91.70;;;;;;5082003;28;20167;-92
2022/08/27 05:15:16;;;;;;;2.03;1.40;;;24.50;91.60;;;;;;5079030;28;20419;-91
2022/08/27 05:17:42;;;;;;;3.33;1.40;;;24.50;91.80;;;;;;5082447;28;20419;-91
2022/08/27 05:20:11;;;;;;;2.47;1.70;;;24.50;91.70;;;;;;5055735;28;20163;-91
2022/08/27 05:22:38;;;;;;;3.17;1.83;;;24.50;91.80;;;;;;5071829;28;20167;-91
2022/08/27 05:28:29;;;;;;;2.47;1.20;;;24.40;91.90;;;;;;5063343;28;20183;-91
2022/08/27 05:31:03;;;;;;;2.50;1.43;;;24.40;91.80;;;;;;5081233;28;20282;-91
2022/08/27 05:33:29;;;;;;;2.57;1.47;;;24.40;91.80;;;;;;5051971;28;20265;-91
2022/08/27 05:35:57;;;;;;;2.40;1.27;;;24.40;91.80;;;;;;5069808;28;20274;-91
2022/08/27 05:38:27;;;;;;;2.27;1.30;;;24.40;91.80;;;;;;5044201;28;20519;-91
2022/08/27 05:41:03;;;;;;;2.70;1.53;;;24.40;91.80;;;;;;5080220;28;20179;-91
2022/08/27 05:43:28;;;;;;;2.67;1.50;;;24.40;91.90;;;;;;5061564;28;20242;-92
2022/08/27 05:45:56;;;;;;;3.03;1.43;;;24.40;91.80;;;;;;5083052;28;20213;-91
2022/08/27 05:48:23;;;;;;;3.63;1.73;;;24.40;91.80;;;;;;5047830;28;20172;-91
2022/08/27 05:51:42;;;;;;;2.97;1.80;;;24.40;91.90;;;;;;5083100;28;20606;-91
2022/08/27 05:54:13;;;;;;;2.10;1.50;;;24.40;91.80;;;;;;5044716;28;20658;-91
2022/08/27 05:56:40;;;;;;;1.93;1.30;;;24.40;91.80;;;;;;5050885;28;20183;-91
2022/08/27 06:02:44;;;;;;;2.07;1.20;;;24.40;91.90;;;;;;4968837;28;20224;-91
2022/08/27 06:05:32;;;;;;;1.50;1.20;;;24.40;91.80;;;;;;5029838;28;20272;-91
2022/08/27 06:11:22;;;;;;;2.47;1.13;;;24.40;91.80;;;;;;5059875;28;20555;-91
2022/08/27 06:13:48;;;;;;;3.97;1.50;;;24.40;91.80;;;;;;5081771;28;20597;-91
2022/08/27 06:16:21;;;;;;;1.90;1.20;;;24.40;91.70;;;;;;5078712;28;20175;-91
2022/08/27 06:18:56;;;;;;;2.63;1.30;;;24.40;91.70;;;;;;5081139;28;20180;-91
2022/08/27 06:21:27;;;;;;;3.03;1.30;;;24.40;91.70;;;;;;5049722;28;20175;-92
2022/08/27 06:23:54;;;;;;;2.03;1.43;;;24.40;91.70;;;;;;5074573;28;20172;-91
2022/08/27 06:26:22;;;;;;;1.33;1.23;;;24.40;91.70;;;;;;5075186;28;20708;-91
2022/08/27 06:29:35;;;;;;;2.60;1.37;;;24.40;91.80;;;;;;5047265;28;20233;-91
2022/08/27 06:36:00;;;;;;;3.03;1.50;;;24.40;91.80;;;;;;5068193;28;20403;-91
2022/08/27 06:38:31;;;;;;;4.33;1.57;;;24.40;91.70;;;;;;5082253;28;20512;-91
2022/08/27 06:41:40;;;;;;;3.13;1.50;;;24.40;91.70;;;;;;5078781;28;20499;-91
2022/08/27 06:44:06;;;;;;;3.13;1.40;;;24.40;91.70;;;;;;5046985;28;20214;-90
2022/08/27 06:47:08;;;;;;;3.17;1.40;;;24.40;91.70;;;;;;5082679;28;20172;-91
2022/08/27 06:49:54;;;;;;;2.30;1.50;;;24.50;91.70;;;;;;5067025;28;20577;-91
2022/08/27 06:55:57;;;;;;;1.77;1.40;;;24.40;91.70;;;;;;5070311;28;20254;-91
2022/08/27 06:58:26;;;;;;;2.10;1.40;;;24.40;91.70;;;;;;5084837;28;20206;-92
2022/08/27 07:04:34;;;;;;;2.80;1.40;;;24.40;91.70;;;;;;5028396;28;20328;-92
2022/08/27 07:07:01;;;;;;;1.83;1.40;;;24.50;91.70;;;;;;5027925;28;20201;-92
2022/08/27 07:13:18;;;;;;;2.73;1.60;;;24.40;91.60;;;;;;4985052;28;20312;-92
2022/08/27 07:15:46;;;;;;;5.83;1.73;;;24.50;91.60;;;;;;4975616;28;20216;-92
2022/08/27 07:18:13;;;;;;;3.03;1.33;;;24.50;91.60;;;;;;5054581;28;20179;-92
2022/08/27 07:20:40;;;;;;;1.20;1.10;;;24.50;91.50;;;;;;5087246;28;20172;-92
2022/08/27 07:23:06;;;;;;;1.93;1.40;;;24.50;91.40;;;;;;5043353;28;20168;-92
2022/08/27 07:25:32;;;;;;;2.10;1.50;;;24.50;91.40;;;;;;5085066;28;20175;-92
2022/08/27 07:32:15;;;;;;;3.20;1.30;;;24.60;91.30;;;;;;5070202;28;20252;-92
2022/08/27 07:34:52;;;;;;;2.13;1.40;;;24.70;91.00;;;;;;5050383;28;20403;-92
2022/08/27 07:37:37;;;;;;;3.93;1.50;;;24.70;90.90;;;;;;5084890;28;20333;-91
2022/08/27 07:40:05;;;;;;;2.70;1.40;;;24.80;90.80;;;;;;5052114;28;20167;-91
2022/08/27 07:45:19;;;;;;;4.10;1.60;;;24.80;90.40;;;;;;5070376;28;20224;-91
2022/08/27 07:47:45;;;;;;;3.67;1.37;;;24.90;90.30;;;;;;5085620;28;20278;-91
2022/08/27 07:50:39;;;;;;;3.83;1.50;;;24.90;90.20;;;;;;5086390;28;20266;-91
2022/08/27 07:53:11;;;;;;;3.37;1.40;;;24.90;90.10;;;;;;5068992;28;20175;-91
2022/08/27 07:55:38;;;;;;;2.30;1.50;;;25.00;90.00;;;;;;5078248;28;20203;-91
2022/08/27 07:58:26;;;;;;;2.47;1.50;;;25.00;90.10;;;;;;5084058;28;20351;-92
2022/08/27 08:04:13;;;;;;;2.60;1.50;;;25.00;88.50;;;;;;5086987;28;20178;-91
2022/08/27 08:06:41;;;;;;;2.17;1.60;;;25.10;89.20;;;;;;5071157;28;20178;-91
2022/08/27 08:09:22;;;;;;;3.20;1.70;;;25.10;89.70;;;;;;5069490;28;20174;-92
2022/08/27 08:11:50;;;;;;;3.30;1.47;;;25.10;89.60;;;;;;5068284;28;20634;-92
2022/08/27 08:14:48;;;;;;;2.90;1.33;;;25.10;88.20;;;;;;5070545;28;20378;-92
2022/08/27 08:18:10;;;;;;;2.30;1.60;;;25.10;88.40;;;;;;5063712;28;20266;-92
2022/08/27 08:20:55;;;;;;;2.43;1.33;;;25.10;88.50;;;;;;5046783;28;20412;-92
2022/08/27 08:23:20;;;;;;;3.20;1.50;;;25.10;88.50;;;;;;5029241;28;20196;-92
2022/08/27 08:25:47;;;;;;;3.80;1.47;;;25.10;88.60;;;;;;5027283;28;20574;-92
2022/08/27 08:28:55;;;;;;;2.83;1.50;;;25.10;88.40;;;;;;5020849;28;20656;-92
2022/08/27 08:31:22;;;;;;;2.20;1.50;;;25.10;87.40;;;;;;5027375;28;20636;-92
2022/08/27 08:33:49;;;;;;;2.57;1.60;;;25.10;88.40;;;;;;5028821;28;20184;-92
2022/08/27 08:36:16;;;;;;;4.13;1.40;;;25.20;88.50;;;;;;5032350;28;20259;-92
2022/08/27 08:38:44;;;;;;;2.13;1.37;;;25.20;87.80;;;;;;5014990;28;20177;-92
2022/08/27 08:41:37;;;;;;;2.47;1.57;;;25.20;88.30;;;;;;5009183;28;20165;-93
2022/08/27 08:44:52;;;;;;;1.50;1.40;;;25.20;88.40;;;;;;5010401;28;20176;-94
2022/08/27 08:51:22;;;;;;;2.70;1.60;;;25.20;88.00;;;;;;5025689;28;20640;-93
2022/08/27 08:54:15;;;;;;;2.43;1.40;;;25.20;87.80;;;;;;5009452;28;20465;-92
2022/08/27 08:57:34;;;;;;;4.70;1.70;;;25.20;87.20;;;;;;5004649;28;20227;-92
2022/08/27 09:04:11;;;;;;;1.87;1.40;;;25.20;87.90;;;;;;5064439;28;20277;-92
2022/08/27 09:06:57;;;;;;;1.80;1.53;;;25.20;87.20;;;;;;5063169;28;20407;-93
2022/08/27 09:10:13;;;;;;;2.03;1.40;;;25.30;87.10;;;;;;5064576;28;20183;-93
2022/08/27 09:12:39;;;;;;;3.07;1.67;;;25.20;87.80;;;;;;5066082;28;20179;-92
2022/08/27 09:22:12;;;;;;;2.27;1.40;;;25.20;87.90;;;;;;5064885;28;20194;-93
2022/08/27 09:25:31;;;;;;;3.43;1.57;;;25.20;87.10;;;;;;5049374;28;20186;-92
2022/08/27 09:29:14;;;;;;;2.67;1.63;;;25.20;87.60;;;;;;5048051;28;20367;-92
2022/08/27 09:34:19;;;;;;;3.30;1.53;;;25.20;88.00;;;;;;5068877;28;20225;-93
2022/08/27 09:50:27;;;;;;;2.57;1.50;;;25.50;85.00;;;;;;5066801;28;20219;-92
2022/08/27 09:52:56;;;;;;;2.33;1.33;;;25.60;84.00;;;;;;5048834;28;20240;-92
2022/08/27 09:55:42;;;;;;;6.60;2.20;;;25.60;84.60;;;;;;5048015;28;20207;-93
2022/08/27 09:58:17;;;;;;;2.90;1.53;;;25.70;84.80;;;;;;5075365;28;20172;-93
2022/08/27 10:00:45;;;;;;;3.53;1.67;;;25.70;83.60;;;;;;5039973;28;20226;-93
2022/08/27 10:03:11;;;;;;;3.10;1.40;;;25.70;83.50;;;;;;5080736;28;20172;-92
2022/08/27 10:05:52;;;;;;;2.80;1.60;;;25.70;81.90;;;;;;5081694;28;20179;-93
2022/08/27 10:19:01;;;;;;;3.73;1.60;;;25.90;80.90;;;;;;5061949;28;20492;-93
2022/08/27 10:35:18;;;;;;;3.40;1.57;;;26.10;76.80;;;;;;5069519;28;20432;-92
2022/08/27 10:38:21;;;;;;;1.43;1.27;;;26.20;76.80;;;;;;5081331;28;20373;-93
2022/08/27 10:44:42;;;;;;;2.93;1.70;;;26.20;75.70;;;;;;5067171;28;20182;-92
2022/08/27 10:54:23;;;;;;;3.30;1.80;;;26.00;75.80;;;;;;5068797;28;20229;-92
2022/08/27 11:00:48;;;;;;;2.80;1.50;;;25.90;77.20;;;;;;4984022;28;20189;-92
2022/08/27 11:07:16;;;;;;;3.57;1.63;;;25.90;77.10;;;;;;4976314;28;20189;-92
2022/08/27 11:13:09;;;;;;;3.67;1.60;;;25.90;76.40;;;;;;4985550;28;20185;-92
2022/08/27 11:19:01;;;;;;;2.93;1.67;;;25.90;75.60;;;;;;4980388;28;20356;-92
2022/08/27 11:21:50;;;;;;;3.50;1.90;;;26.00;76.50;;;;;;4999332;28;20189;-92
2022/08/27 11:24:18;;;;;;;2.60;1.43;;;26.10;75.30;;;;;;5019724;28;20195;-92
2022/08/27 11:26:45;;;;;;;3.87;1.67;;;26.30;75.00;;;;;;5064629;28;20187;-92
2022/08/27 11:29:34;;;;;;;7.73;1.70;;;26.40;73.60;;;;;;5048242;28;20367;-91
2022/08/27 11:32:03;;;;;;;2.43;1.60;;;26.50;72.10;;;;;;5048850;28;20330;-91
2022/08/27 11:35:22;;;;;;;2.70;1.40;;;26.60;70.90;;;;;;5066277;28;20827;-92
2022/08/27 11:38:26;;;;;;;2.70;1.60;;;26.70;70.30;;;;;;5046637;28;20231;-92
2022/08/27 11:40:51;;;;;;;4.63;1.63;;;26.70;69.80;;;;;;4995592;28;20178;-91
2022/08/27 11:44:01;;;;;;;3.00;1.60;;;26.80;69.50;;;;;;5061172;28;20179;-91
2022/08/27 11:46:55;;;;;;;3.77;2.00;;;26.70;69.60;;;;;;5039279;28;20228;-91
2022/08/27 11:50:13;;;;;;;4.27;1.93;;;26.60;68.10;;;;;;4975804;28;20323;-91
2022/08/27 11:52:41;;;;;;;4.57;1.80;;;26.40;65.20;;;;;;4996167;28;20451;-91
2022/08/27 11:55:54;;;;;;;3.20;1.50;;;26.30;70.00;;;;;;5046750;28;20207;-91
2022/08/27 11:58:37;;;;;;;3.70;1.70;;;26.40;70.10;;;;;;5064968;28;20190;-91
2022/08/27 12:04:30;;;;;;;2.30;1.50;;;26.70;68.00;;;;;;5066258;28;20175;-93
2022/08/27 12:07:20;;;;;;;2.87;1.60;;;26.70;68.10;;;;;;5066997;28;20585;-93
2022/08/27 12:09:55;;;;;;;2.10;1.50;;;26.70;68.40;;;;;;5064268;28;20460;-93
2022/08/27 12:19:19;;;;;;;4.33;1.80;;;26.60;66.00;;;;;;5067709;28;20194;-93
2022/08/27 12:23:38;;;;;;;2.30;1.57;;;26.70;66.50;;;;;;5048826;28;20177;-93
2022/08/27 12:25:34;;;;;;;2.23;1.60;;;26.50;65.40;;;;;;5066207;28;20407;-93
2022/08/27 12:28:08;;;;;;;2.60;1.60;;;26.60;67.30;;;;;;5047410;28;20175;-93
2022/08/27 12:30:48;;;;;;;5.93;1.83;;;26.60;67.60;;;;;;5069234;28;20460;-93
2022/08/27 12:43:23;;;;;;;2.53;1.57;;;26.50;66.70;;;;;;5060771;28;20194;-92
2022/08/27 12:45:56;;;;;;;1.80;1.40;;;26.50;67.80;;;;;;5045505;28;20213;-92
2022/08/27 12:48:53;;;;;;;2.83;1.60;;;26.50;67.20;;;;;;5060751;28;20191;-92
2022/08/27 12:51:32;;;;;;;4.33;1.60;;;26.50;65.00;;;;;;5077637;28;20487;-92
2022/08/27 12:57:47;;;;;;;2.73;1.40;;;26.50;66.50;;;;;;5055342;28;20435;-92
2022/08/27 13:00:18;;;;;;;1.70;1.30;;;26.60;64.30;;;;;;5046874;28;20171;-92
2022/08/27 13:03:02;;;;;;;3.47;1.80;;;26.60;67.10;;;;;;5042243;28;20349;-92
2022/08/27 13:05:50;;;;;;;1.83;1.50;;;26.60;65.50;;;;;;5043713;28;20175;-92
2022/08/27 13:14:52;;;;;;;2.37;1.60;;;26.50;66.80;;;;;;5064561;28;20268;-93
2022/08/27 13:20:43;;;;;;;2.57;1.53;;;26.50;63.50;;;;;;5064062;28;20178;-93
2022/08/27 13:23:26;;;;;;;3.73;1.50;;;26.50;66.20;;;;;;5077927;28;20175;-94
2022/08/27 13:26:20;;;;;;;2.00;1.40;;;26.60;66.70;;;;;;5047177;28;20171;-93
2022/08/27 13:29:24;;;;;;;2.07;1.60;;;26.60;66.60;;;;;;5046509;28;20187;-93
2022/08/27 13:31:50;;;;;;;5.23;1.70;;;26.60;66.30;;;;;;4997496;28;20448;-93
2022/08/27 13:34:22;;;;;;;3.40;1.70;;;26.60;63.90;;;;;;5033853;28;20211;-93
2022/08/27 13:54:13;;;;;;;2.00;1.50;;;26.40;65.10;;;;;;5009334;28;20550;-92
2022/08/27 13:57:08;;;;;;;2.83;1.60;;;26.50;65.30;;;;;;5060134;28;20173;-92
2022/08/27 13:59:40;;;;;;;3.57;1.37;;;26.40;64.80;;;;;;5064647;28;20195;-92
2022/08/27 14:02:09;;;;;;;2.10;1.60;;;26.40;64.60;;;;;;5064536;28;20191;-92
2022/08/27 14:11:38;;;;;;;2.50;1.50;;;26.50;64.50;;;;;;5062786;28;20236;-92
2022/08/27 14:14:40;;;;;;;1.33;1.23;;;26.50;64.30;;;;;;5083838;28;20178;-92
2022/08/27 14:18:04;;;;;;;4.10;1.63;;;26.50;65.40;;;;;;5049232;28;20178;-92
2022/08/27 14:20:36;;;;;;;2.63;1.67;;;26.50;65.40;;;;;;5043029;28;20175;-92
2022/08/27 14:23:03;;;;;;;1.67;1.30;;;26.60;65.40;;;;;;5079587;28;20324;-92
2022/08/27 14:26:03;;;;;;;2.10;1.50;;;26.60;64.60;;;;;;5079389;28;20175;-92
2022/08/27 14:28:30;;;;;;;3.43;1.57;;;26.60;64.50;;;;;;5064856;28;20342;-91
2022/08/27 14:31:18;;;;;;;3.10;1.80;;;26.60;62.60;;;;;;5083265;28;20171;-92
2022/08/27 14:37:06;;;;;;;3.93;1.60;;;26.60;62.80;;;;;;5065999;28;20438;-93
2022/08/27 14:39:35;;;;;;;3.27;1.43;;;26.60;63.90;;;;;;5088114;28;20168;-92
2022/08/27 14:42:01;;;;;;;2.50;1.50;;;26.70;64.10;;;;;;5081912;28;20225;-92
2022/08/27 14:51:32;;;;;;;2.87;1.47;;;26.70;63.80;;;;;;5063414;28;20203;-93
2022/08/27 14:54:00;;;;;;;2.70;1.83;;;26.70;63.70;;;;;;5081371;28;20244;-92
2022/08/27 15:03:35;;;;;;;1.43;1.27;;;26.70;63.80;;;;;;5060227;28;20170;-92
2022/08/27 15:06:47;;;;;;;1.90;1.50;;;26.70;63.70;;;;;;5047056;28;20172;-93
2022/08/27 15:09:28;;;;;;;2.43;1.70;;;26.60;63.30;;;;;;5060233;28;20247;-92
2022/08/27 15:12:31;;;;;;;1.50;1.40;;;26.60;62.50;;;;;;5077865;28;20176;-92
2022/08/27 15:14:57;;;;;;;1.47;1.27;;;26.60;63.50;;;;;;5081665;28;20203;-92
2022/08/27 15:18:04;;;;;;;3.37;1.70;;;26.60;63.40;;;;;;5080879;28;20282;-92
2022/08/27 15:24:23;;;;;;;3.63;1.63;;;26.50;63.40;;;;;;5067081;28;20191;-93
2022/08/27 15:33:33;;;;;;;3.30;1.60;;;26.50;62.60;;;;;;5066642;28;20179;-93
2022/08/27 15:36:14;;;;;;;1.97;1.43;;;26.50;63.10;;;;;;5081960;28;20199;-92
2022/08/27 15:38:49;;;;;;;2.90;1.70;;;26.50;62.90;;;;;;5080472;28;20167;-93
2022/08/27 15:41:33;;;;;;;2.27;1.47;;;26.50;63.40;;;;;;5079141;28;20171;-93
2022/08/27 15:44:30;;;;;;;3.57;1.67;;;26.50;62.50;;;;;;5081021;28;20175;-93
2022/08/27 15:50:18;;;;;;;1.70;1.30;;;26.40;62.90;;;;;;5063380;28;20499;-93
2022/08/27 15:53:25;;;;;;;1.63;1.50;;;26.40;63.60;;;;;;5080517;28;20171;-92
2022/08/27 15:56:16;;;;;;;2.53;1.60;;;26.40;62.60;;;;;;5073486;28;20221;-93
2022/08/27 15:59:13;;;;;;;1.70;1.53;;;26.40;62.30;;;;;;5081863;28;20171;-92
2022/08/27 16:02:22;;;;;;;3.07;1.67;;;26.40;63.20;;;;;;5079091;28;20168;-92
2022/08/27 16:08:10;;;;;;;2.40;1.50;;;26.30;62.60;;;;;;5064804;28;20429;-92
2022/08/27 16:10:36;;;;;;;3.17;1.50;;;26.30;62.10;;;;;;5086655;28;20179;-93
2022/08/27 16:13:20;;;;;;;2.40;1.50;;;26.30;62.40;;;;;;5081373;28;20176;-93
2022/08/27 16:16:05;;;;;;;2.40;1.30;;;26.30;62.70;;;;;;5076509;28;20395;-93
2022/08/27 16:22:05;;;;;;;2.07;1.40;;;26.30;62.30;;;;;;5011012;28;20244;-93
2022/08/27 16:27:53;;;;;;;3.33;1.83;;;26.20;62.90;;;;;;5061729;28;20630;-93
2022/08/27 16:30:48;;;;;;;4.03;1.47;;;26.20;62.20;;;;;;5084251;28;20168;-93
2022/08/27 16:33:15;;;;;;;1.70;1.40;;;26.20;62.50;;;;;;5052705;28;20180;-93
2022/08/27 16:35:41;;;;;;;2.43;1.40;;;26.10;63.10;;;;;;5081954;28;20211;-93
2022/08/27 16:38:35;;;;;;;2.00;1.57;;;26.20;63.50;;;;;;5079125;28;20560;-93
2022/08/27 16:41:13;;;;;;;1.47;1.30;;;26.10;62.90;;;;;;5083726;28;20270;-93
2022/08/27 16:43:51;;;;;;;2.70;1.50;;;26.10;63.10;;;;;;5078045;28;20194;-93
2022/08/27 16:46:54;;;;;;;2.00;1.47;;;26.10;64.20;;;;;;5046323;28;20457;-92
2022/08/27 16:59:33;;;;;;;3.53;1.50;;;26.00;64.60;;;;;;4985237;28;20254;-93
2022/08/27 17:01:59;;;;;;;2.43;1.37;;;26.00;64.50;;;;;;4968781;28;20177;-92
2022/08/27 17:07:47;;;;;;;2.07;1.60;;;25.90;62.00;;;;;;4986769;28;20201;-92
2022/08/27 17:10:44;;;;;;;2.87;1.60;;;25.90;63.10;;;;;;4966421;28;20197;-91
2022/08/27 17:13:18;;;;;;;3.53;1.80;;;25.90;63.50;;;;;;5015915;28;20627;-92
2022/08/27 17:15:54;;;;;;;2.80;1.70;;;25.90;63.00;;;;;;5046988;28;20206;-92
2022/08/27 17:19:00;;;;;;;2.00;1.80;;;25.90;64.10;;;;;;5025952;28;20226;-92
2022/08/27 17:21:54;;;;;;;4.47;1.90;;;25.80;63.40;;;;;;5046502;28;20202;-92
2022/08/27 17:28:50;;;;;;;2.47;1.70;;;25.70;62.40;;;;;;5063329;28;20687;-91
2022/08/27 17:31:39;;;;;;;1.83;1.50;;;25.70;64.10;;;;;;5061878;28;20530;-91
2022/08/27 17:34:14;;;;;;;3.27;1.60;;;25.70;63.90;;;;;;5047144;28;20213;-92
2022/08/27 17:37:33;;;;;;;4.07;1.73;;;25.60;63.10;;;;;;5079739;28;20364;-91
2022/08/27 17:43:06;;;;;;;2.60;1.77;;;25.60;64.50;;;;;;4982931;28;20540;-92
2022/08/27 17:46:10;;;;;;;4.60;1.87;;;25.50;63.00;;;;;;5082669;28;20176;-91
2022/08/27 17:48:48;;;;;;;3.77;1.60;;;25.50;64.20;;;;;;5045160;28;20171;-92
2022/08/27 17:51:14;;;;;;;3.33;1.97;;;25.50;63.90;;;;;;5074135;28;20247;-92
2022/08/27 17:53:48;;;;;;;2.93;1.60;;;25.50;64.10;;;;;;5075109;28;20172;-91
2022/08/27 17:56:42;;;;;;;2.57;1.80;;;25.50;63.90;;;;;;5076085;28;20219;-91
2022/08/27 18:02:58;;;;;;;2.93;2.00;;;25.50;63.50;;;;;;5057762;28;20225;-91
2022/08/27 18:05:24;;;;;;;4.53;1.90;;;25.50;64.00;;;;;;5045045;28;20207;-92
2022/08/27 18:07:57;;;;;;;4.37;1.90;;;25.50;63.60;;;;;;5081794;28;20211;-92
2022/08/27 18:10:48;;;;;;;3.57;1.70;;;25.50;63.80;;;;;;5077556;28;20448;-92
2022/08/27 18:13:30;;;;;;;3.60;2.30;;;25.50;63.90;;;;;;5080427;28;20208;-92
2022/08/27 18:15:59;;;;;;;2.70;1.90;;;25.50;64.30;;;;;;5052617;28;20731;-92
2022/08/27 18:18:25;;;;;;;3.13;1.83;;;25.40;64.50;;;;;;5062451;28;20160;-92